createdAt,value
2023-02-02T00:04:36.730Z,9.08
2023-02-02T00:09:39.541Z,7.23
2023-02-02T00:14:42.861Z,8.81
2023-02-02T00:19:46.887Z,9.52
2023-02-02T00:24:58.340Z,7.49
2023-02-02T00:30:01.113Z,8.05
2023-02-02T00:35:03.984Z,9.44
2023-02-02T00:40:08.000Z,9.10
2023-02-02T00:45:18.271Z,7.26
2023-02-02T00:50:21.779Z,8.66
2023-02-02T00:55:26.482Z,9.47
2023-02-02T01:00:29.677Z,7.49
2023-02-02T01:05:34.913Z,7.05
2023-02-02T01:10:37.970Z,8.80
2023-02-02T01:15:40.750Z,8.09
2023-02-02T01:20:43.540Z,6.16
2023-02-02T01:25:53.568Z,7.82
2023-02-02T01:30:57.368Z,8.02
2023-02-02T01:36:07.862Z,5.77
2023-02-02T01:41:19.609Z,7.06
2023-02-02T01:46:26.542Z,8.47
2023-02-02T01:51:58.402Z,7.26
2023-02-02T01:57:06.142Z,6.25
2023-02-02T02:02:09.062Z,7.93
2023-02-02T02:07:12.329Z,8.82
2023-02-02T02:12:16.286Z,7.05
2023-02-02T02:17:33.615Z,6.73
2023-02-02T02:23:13.997Z,8.72
2023-02-02T02:28:28.745Z,8.51
2023-02-02T02:33:40.409Z,6.48
2023-02-02T02:39:16.780Z,8.05
2023-02-02T02:44:21.657Z,9.32
2023-02-02T02:49:24.389Z,8.02
2023-02-02T02:54:39.913Z,7.37
2023-02-02T03:00:12.652Z,9.09
2023-02-02T03:06:10.606Z,9.40
2023-02-02T03:11:15.956Z,7.20
2023-02-02T03:16:18.680Z,8.76
2023-02-02T03:21:22.360Z,9.70
2023-02-02T03:26:28.791Z,7.86
2023-02-02T03:31:32.035Z,7.83
2023-02-02T03:36:34.985Z,9.19
2023-02-02T03:41:37.809Z,9.61
2023-02-02T03:46:40.570Z,7.47
2023-02-02T03:51:44.438Z,8.08
2023-02-02T03:56:47.185Z,9.58
2023-02-02T04:01:50.017Z,9.03
2023-02-02T04:06:53.167Z,7.58
2023-02-02T04:11:55.973Z,9.13
2023-02-02T04:16:58.765Z,9.72
2023-02-02T04:22:01.569Z,8.74
2023-02-02T04:27:04.474Z,7.68
2023-02-02T04:32:07.328Z,9.18
2023-02-02T04:37:11.257Z,9.32
2023-02-02T04:42:14.124Z,7.22
2023-02-02T04:47:16.926Z,8.34
2023-02-02T04:52:19.731Z,9.69
2023-02-02T04:57:23.025Z,8.47
2023-02-02T05:02:25.884Z,7.39
2023-02-02T05:07:28.678Z,9.12
2023-02-02T05:12:31.428Z,9.33
2023-02-02T05:17:34.188Z,7.08
2023-02-02T05:22:36.979Z,8.07
2023-02-02T05:27:42.744Z,9.52
2023-02-02T05:32:45.543Z,8.85
2023-02-02T05:37:48.391Z,7.09
2023-02-02T05:42:51.101Z,8.67
2023-02-02T05:47:55.946Z,9.62
2023-02-02T05:53:00.010Z,7.59
2023-02-02T05:58:02.761Z,7.55
2023-02-02T06:03:05.556Z,9.15
2023-02-02T06:08:08.394Z,9.37
2023-02-02T06:13:11.563Z,7.13
2023-02-02T06:18:14.392Z,7.20
2023-02-02T06:23:17.151Z,9.11
2023-02-02T06:28:20.397Z,9.20
2023-02-02T06:33:23.131Z,7.21
2023-02-02T06:38:25.901Z,8.54
2023-02-02T06:43:29.762Z,9.75
2023-02-02T06:48:32.675Z,8.31
2023-02-02T06:53:35.547Z,7.38
2023-02-02T06:58:38.661Z,9.12
2023-02-02T07:03:42.002Z,9.84
2023-02-02T07:08:45.083Z,7.86
2023-02-02T07:13:50.613Z,7.43
2023-02-02T07:18:53.533Z,9.44
2023-02-02T07:23:56.573Z,9.31
2023-02-02T07:28:59.518Z,7.13
2023-02-02T07:34:02.318Z,8.25
2023-02-02T07:39:07.847Z,9.71
2023-02-02T07:44:17.325Z,8.49
2023-02-02T07:49:20.758Z,7.01
2023-02-02T07:54:23.826Z,8.95
2023-02-02T07:59:26.616Z,9.86
2023-02-02T08:04:29.590Z,7.90
2023-02-02T08:09:33.198Z,7.43
2023-02-02T08:14:36.355Z,9.47
2023-02-02T08:19:39.165Z,9.55
2023-02-02T08:24:43.045Z,7.46
2023-02-02T08:29:46.367Z,7.88
2023-02-02T08:34:52.200Z,9.79
2023-02-02T08:39:55.044Z,9.81
2023-02-02T08:46:00.333Z,8.67
2023-02-02T08:50:09.036Z,10.35
2023-02-02T08:55:11.985Z,9.66
2023-02-02T09:00:16.581Z,8.52
2023-02-02T09:05:26.787Z,9.98
2023-02-02T09:10:34.901Z,9.71
2023-02-02T09:15:38.872Z,8.61
2023-02-02T09:20:43.712Z,9.60
2023-02-02T09:25:47.524Z,9.92
2023-02-02T09:30:50.587Z,8.08
2023-02-02T09:35:55.209Z,9.02
2023-02-02T09:40:58.303Z,10.19
2023-02-02T09:46:18.209Z,9.37
2023-02-02T09:51:41.911Z,8.60
2023-02-02T09:56:51.296Z,9.75
2023-02-02T10:01:58.760Z,8.45
2023-02-02T10:07:09.999Z,9.42
2023-02-02T10:12:43.941Z,9.49
2023-02-02T10:17:56.447Z,8.73
2023-02-02T10:23:11.812Z,9.83
2023-02-02T10:28:18.963Z,8.03
2023-02-02T10:33:39.476Z,9.34
2023-02-02T10:38:53.177Z,10.19
2023-02-02T10:44:15.143Z,8.57
2023-02-02T10:49:35.400Z,9.86
2023-02-02T10:55:14.721Z,9.76
2023-02-02T11:00:31.543Z,9.10
2023-02-02T11:05:53.418Z,10.18
2023-02-02T11:11:21.213Z,8.56
2023-02-02T11:16:43.214Z,10.07
2023-02-02T11:21:50.567Z,9.87
2023-02-02T11:26:57.031Z,8.45
2023-02-02T11:32:33.237Z,9.91
2023-02-02T11:37:38.758Z,9.03
2023-02-02T11:42:48.065Z,8.62
2023-02-02T11:47:52.348Z,9.61
2023-02-02T11:52:55.738Z,8.67
2023-02-02T11:58:20.618Z,7.71
2023-02-02T12:03:47.821Z,8.33
2023-02-02T12:08:56.338Z,7.73
2023-02-02T12:14:29.135Z,8.88
2023-02-02T12:19:53.296Z,7.11
2023-02-02T12:25:11.436Z,8.39
2023-02-02T12:30:24.006Z,8.14
2023-02-02T12:36:04.791Z,6.77
2023-02-02T12:41:23.699Z,8.40
2023-02-02T12:46:53.906Z,7.13
2023-02-02T12:52:19.282Z,7.63
2023-02-02T12:57:41.100Z,7.95
2023-02-02T13:03:11.452Z,6.89
2023-02-02T13:08:31.353Z,8.60
2023-02-02T13:13:38.587Z,6.91
2023-02-02T13:18:52.514Z,7.33
2023-02-02T13:24:05.073Z,7.76
2023-02-02T13:29:52.481Z,7.18
2023-02-02T13:34:57.510Z,8.88
2023-02-02T13:40:37.923Z,7.48
2023-02-02T13:46:06.560Z,7.94
2023-02-02T13:51:38.420Z,8.55
2023-02-02T13:56:44.060Z,6.74
2023-02-02T14:01:53.975Z,7.82
2023-02-02T14:07:07.136Z,8.78
2023-02-02T14:12:11.764Z,6.92
2023-02-02T14:17:16.653Z,8.14
2023-02-02T14:22:39.769Z,7.15
2023-02-02T14:27:58.916Z,6.26
2023-02-02T14:33:20.761Z,8.28
2023-02-02T14:38:44.486Z,8.23
2023-02-02T14:43:54.433Z,6.06
2023-02-02T14:48:57.275Z,6.03
2023-02-02T14:54:05.567Z,8.52
2023-02-02T14:59:17.792Z,8.70
2023-02-02T15:04:21.589Z,6.50
2023-02-02T15:09:28.515Z,6.35
2023-02-02T15:14:38.759Z,8.43
2023-02-02T15:19:47.740Z,8.45
2023-02-02T15:24:53.099Z,6.20
2023-02-02T15:30:03.155Z,6.70
2023-02-02T15:35:14.695Z,8.03
2023-02-02T15:40:24.576Z,6.60
2023-02-02T15:45:31.202Z,7.58
2023-02-02T15:50:34.696Z,7.63
2023-02-02T15:55:37.549Z,5.51
2023-02-02T16:00:41.647Z,6.44
2023-02-02T16:05:50.046Z,8.22
2023-02-02T16:11:07.265Z,7.32
2023-02-02T16:16:37.617Z,5.97
2023-02-02T16:21:48.957Z,7.87
2023-02-02T16:26:56.297Z,7.73
2023-02-02T16:31:59.788Z,5.37
2023-02-02T16:37:06.759Z,5.21
2023-02-02T16:42:12.255Z,7.32
2023-02-02T16:47:38.700Z,7.19
2023-02-02T16:52:59.574Z,5.10
2023-02-02T16:58:07.778Z,6.36
2023-02-02T17:03:17.001Z,8.05
2023-02-02T17:08:38.077Z,7.45
2023-02-02T17:13:41.411Z,5.26
2023-02-02T17:18:44.298Z,6.42
2023-02-02T17:23:51.626Z,7.86
2023-02-02T17:29:00.253Z,7.63
2023-02-02T17:34:18.007Z,5.15
2023-02-02T17:39:20.890Z,4.92
2023-02-02T17:44:24.039Z,6.80
2023-02-02T17:49:27.918Z,6.42
2023-02-02T17:54:32.225Z,5.06
2023-02-02T17:59:35.206Z,6.81
2023-02-02T18:04:38.088Z,7.63
2023-02-02T18:09:41.100Z,5.37
2023-02-02T18:14:44.049Z,4.71
2023-02-02T18:19:51.655Z,6.68
2023-02-02T18:24:54.497Z,7.69
2023-02-02T18:29:58.033Z,5.83
2023-02-02T18:35:02.634Z,5.31
2023-02-02T18:40:08.364Z,7.17
2023-02-02T18:45:13.193Z,7.30
2023-02-02T18:50:18.630Z,5.35
2023-02-02T18:55:21.480Z,6.62
2023-02-02T19:00:24.418Z,7.84
2023-02-02T19:05:46.107Z,7.31
2023-02-02T19:10:57.716Z,5.55
2023-02-02T19:16:02.511Z,7.25
2023-02-02T19:21:11.678Z,6.90
2023-02-02T19:26:26.469Z,5.42
2023-02-02T19:31:29.790Z,7.21
2023-02-02T19:36:36.977Z,7.89
2023-02-02T19:41:42.605Z,5.55
2023-02-02T19:46:49.660Z,5.81
2023-02-02T19:51:55.673Z,7.24
2023-02-02T19:57:14.835Z,6.69
2023-02-02T20:02:39.781Z,5.04
2023-02-02T20:07:43.198Z,6.83
2023-02-02T20:12:51.116Z,7.33
2023-02-02T20:18:00.167Z,5.05
2023-02-02T20:23:17.769Z,4.83
2023-02-02T20:28:45.598Z,7.02
2023-02-02T20:33:55.058Z,6.12
2023-02-02T20:39:15.602Z,5.14
2023-02-02T20:44:18.469Z,6.61
2023-02-02T20:49:25.966Z,7.33
2023-02-02T20:54:29.243Z,5.60
2023-02-02T20:59:33.229Z,6.35
2023-02-02T21:04:36.685Z,7.18
2023-02-02T21:09:42.742Z,5.17
2023-02-02T21:14:47.465Z,4.90
2023-02-02T21:19:50.511Z,6.53
2023-02-02T21:24:53.665Z,6.45
2023-02-02T21:29:56.821Z,4.24
2023-02-02T21:35:00.993Z,4.94
2023-02-02T21:40:13.879Z,6.52
2023-02-02T21:45:20.211Z,5.42
2023-02-02T21:50:33.920Z,3.83
2023-02-02T21:55:38.290Z,5.55
2023-02-02T22:00:42.496Z,6.09
2023-02-02T22:05:45.280Z,3.71
2023-02-02T22:10:49.223Z,3.93
2023-02-02T22:15:54.043Z,6.01
2023-02-02T22:20:57.018Z,5.67
2023-02-02T22:26:01.575Z,3.93
2023-02-02T22:31:05.873Z,5.83
2023-02-02T22:36:09.166Z,5.33
2023-02-02T22:41:12.084Z,3.89
2023-02-02T22:46:15.610Z,5.56
2023-02-02T22:51:20.467Z,4.80
2023-02-02T22:56:23.306Z,2.91
2023-02-02T23:01:26.097Z,4.47
2023-02-02T23:06:28.994Z,5.54
2023-02-02T23:11:31.798Z,3.50
2023-02-02T23:16:35.048Z,2.55
2023-02-02T23:21:37.912Z,4.80
2023-02-02T23:26:40.832Z,4.14
2023-02-02T23:31:43.843Z,2.17
2023-02-02T23:36:46.712Z,3.53
2023-02-02T23:41:49.515Z,4.92
2023-02-02T23:46:53.344Z,2.90
2023-02-02T23:51:56.276Z,1.28
2023-02-02T23:56:59.345Z,0.34
